createdAt,value
2022-09-28T00:00:35.321Z,23.89
2022-09-28T00:01:35.505Z,23.10
2022-09-28T00:02:35.796Z,24.50
2022-09-28T00:03:35.756Z,23.79
2022-09-28T00:04:35.898Z,24.70
2022-09-28T00:05:36.049Z,24.50
2022-09-28T00:06:36.186Z,24.29
2022-09-28T00:07:36.337Z,23.29
2022-09-28T00:08:36.472Z,23.20
2022-09-28T00:09:36.612Z,25.39
2022-09-28T00:10:36.760Z,23.89
2022-09-28T00:11:36.900Z,24.39
2022-09-28T00:12:37.048Z,24.70
2022-09-28T00:13:37.223Z,23.89
2022-09-28T00:14:37.347Z,24.50
2022-09-28T00:15:37.528Z,24.89
2022-09-28T00:16:37.700Z,24.79
2022-09-28T00:17:37.788Z,24.79
2022-09-28T00:18:37.935Z,24.70
2022-09-28T00:19:38.077Z,25.39
2022-09-28T00:20:38.225Z,25.00
2022-09-28T00:21:38.374Z,25.00
2022-09-28T00:22:38.524Z,26.39
2022-09-28T00:23:38.675Z,25.39
2022-09-28T00:24:38.816Z,26.89
2022-09-28T00:25:38.965Z,25.89
2022-09-28T00:26:39.113Z,26.20
2022-09-28T00:27:39.259Z,25.89
2022-09-28T00:28:39.436Z,25.60
2022-09-28T00:29:39.557Z,26.20
2022-09-28T00:30:39.704Z,25.79
2022-09-28T00:31:39.891Z,24.20
2022-09-28T00:32:40.003Z,25.29
2022-09-28T00:33:40.155Z,25.50
2022-09-28T00:34:40.310Z,26.10
2022-09-28T00:35:40.463Z,26.00
2022-09-28T00:36:40.618Z,26.39
2022-09-28T00:37:40.765Z,26.39
2022-09-28T00:38:40.917Z,27.70
2022-09-28T00:39:41.072Z,25.50
2022-09-28T00:40:41.313Z,26.50
2022-09-28T00:41:41.373Z,26.10
2022-09-28T00:42:41.527Z,25.70
2022-09-28T00:43:41.705Z,26.70
2022-09-28T00:44:41.834Z,26.60
2022-09-28T00:45:42.052Z,26.79
2022-09-28T00:46:42.134Z,26.70
2022-09-28T00:47:42.296Z,26.89
2022-09-28T00:48:42.443Z,27.00
2022-09-28T00:49:42.591Z,26.70
2022-09-28T00:50:42.742Z,27.29
2022-09-28T00:51:42.889Z,27.50
2022-09-28T00:52:43.035Z,27.60
2022-09-28T00:53:43.183Z,27.50
2022-09-28T00:54:43.333Z,27.20
2022-09-28T00:55:43.482Z,26.10
2022-09-28T00:56:43.634Z,28.10
2022-09-28T00:57:43.789Z,27.29
2022-09-28T00:58:43.960Z,27.50
2022-09-28T00:59:44.082Z,29.50
2022-09-28T01:00:44.269Z,28.39
2022-09-28T01:01:44.482Z,28.50
2022-09-28T01:02:44.529Z,29.89
2022-09-28T01:03:44.681Z,28.00
2022-09-28T01:04:44.831Z,29.60
2022-09-28T01:05:44.985Z,28.29
2022-09-28T01:06:45.135Z,29.70
2022-09-28T01:07:45.279Z,29.79
2022-09-28T01:08:45.426Z,28.29
2022-09-28T01:09:45.574Z,29.00
2022-09-28T01:10:45.719Z,28.20
2022-09-28T01:11:45.866Z,30.29
2022-09-28T01:12:46.017Z,29.60
2022-09-28T01:13:46.171Z,30.50
2022-09-28T01:14:46.480Z,31.00
2022-09-28T01:15:46.477Z,31.10
2022-09-28T01:16:46.689Z,32.20
2022-09-28T01:17:46.778Z,31.70
2022-09-28T01:18:46.925Z,31.50
2022-09-28T01:19:47.071Z,33.50
2022-09-28T01:20:47.219Z,32.09
2022-09-28T01:21:47.367Z,33.29
2022-09-28T01:22:47.526Z,32.59
2022-09-28T01:23:47.667Z,33.20
2022-09-28T01:24:47.814Z,33.40
2022-09-28T01:25:47.961Z,32.20
2022-09-28T01:26:48.107Z,32.59
2022-09-28T01:27:48.257Z,33.70
2022-09-28T01:28:48.405Z,32.90
2022-09-28T01:29:48.554Z,32.90
2022-09-28T01:30:48.728Z,32.50
2022-09-28T01:31:48.936Z,32.79
2022-09-28T01:32:49.009Z,33.50
2022-09-28T01:33:49.161Z,32.79
2022-09-28T01:34:49.312Z,32.90
2022-09-28T01:35:49.463Z,32.90
2022-09-28T01:36:49.614Z,33.00
2022-09-28T01:37:49.756Z,32.09
2022-09-28T01:38:49.904Z,32.20
2022-09-28T01:39:50.048Z,31.39
2022-09-28T01:40:50.307Z,32.20
2022-09-28T01:41:50.350Z,31.10
2022-09-28T01:42:50.499Z,31.79
2022-09-28T01:43:50.648Z,31.70
2022-09-28T01:44:50.806Z,31.79
2022-09-28T01:45:51.006Z,30.10
2022-09-28T01:46:51.122Z,30.00
2022-09-28T01:47:51.241Z,30.60
2022-09-28T01:48:51.388Z,32.29
2022-09-28T01:49:51.532Z,30.10
2022-09-28T01:50:51.676Z,29.70
2022-09-28T01:51:51.823Z,30.10
2022-09-28T01:52:51.971Z,29.89
2022-09-28T01:53:52.114Z,30.79
2022-09-28T01:54:52.260Z,30.50
2022-09-28T01:55:52.405Z,29.39
2022-09-28T01:56:52.554Z,28.70
2022-09-28T01:57:52.699Z,27.79
2022-09-28T01:58:52.845Z,27.20
2022-09-28T01:59:52.999Z,27.00
2022-09-28T02:00:53.188Z,27.50
2022-09-28T02:01:53.337Z,26.39
2022-09-28T02:02:53.462Z,27.50
2022-09-28T02:03:53.579Z,27.50
2022-09-28T02:04:53.725Z,27.00
2022-09-28T02:05:53.872Z,26.50
2022-09-28T02:06:54.014Z,26.70
2022-09-28T02:07:54.159Z,26.39
2022-09-28T02:08:54.306Z,26.00
2022-09-28T02:09:54.453Z,24.79
2022-09-28T02:10:54.602Z,25.20
2022-09-28T02:11:54.747Z,24.39
2022-09-28T02:12:54.892Z,25.50
2022-09-28T02:13:55.037Z,26.39
2022-09-28T02:14:55.181Z,24.79
2022-09-28T02:15:55.394Z,24.29
2022-09-28T02:16:55.469Z,23.20
2022-09-28T02:17:55.616Z,23.89
2022-09-28T02:18:55.819Z,23.20
2022-09-28T02:19:55.909Z,23.60
2022-09-28T02:20:56.056Z,25.29
2022-09-28T02:21:56.204Z,23.39
2022-09-28T02:22:56.355Z,23.10
2022-09-28T02:23:56.497Z,24.10
2022-09-28T02:24:56.645Z,23.39
2022-09-28T02:25:56.787Z,23.10
2022-09-28T02:26:56.931Z,23.50
2022-09-28T02:27:57.077Z,22.20
2022-09-28T02:28:57.220Z,22.00
2022-09-28T02:29:57.361Z,23.50
2022-09-28T02:30:57.511Z,23.89
2022-09-28T02:31:57.696Z,22.29
2022-09-28T02:32:57.819Z,23.20
2022-09-28T02:33:57.940Z,23.89
2022-09-28T02:34:58.103Z,24.10
2022-09-28T02:35:58.227Z,23.50
2022-09-28T02:36:58.363Z,22.70
2022-09-28T02:37:58.506Z,23.00
2022-09-28T02:38:58.655Z,23.29
2022-09-28T02:39:58.801Z,22.20
2022-09-28T02:40:59.016Z,22.00
2022-09-28T02:41:59.100Z,21.39
2022-09-28T02:42:59.247Z,22.50
2022-09-28T02:43:59.415Z,22.10
2022-09-28T02:44:59.545Z,21.70
2022-09-28T02:45:59.742Z,21.29
2022-09-28T02:46:59.843Z,22.29
2022-09-28T02:47:59.990Z,21.89
2022-09-28T02:49:20.375Z,20.39
2022-09-28T02:50:01.328Z,20.89
2022-09-28T02:51:00.439Z,20.20
2022-09-28T02:52:00.588Z,20.79
2022-09-28T02:53:00.737Z,21.10
2022-09-28T02:54:00.889Z,20.10
2022-09-28T02:55:01.034Z,21.39
2022-09-28T02:56:01.183Z,18.89
2022-09-28T02:57:01.331Z,21.00
2022-09-28T02:58:01.471Z,20.70
2022-09-28T02:59:01.609Z,19.89
2022-09-28T03:00:01.767Z,19.10
2022-09-28T03:01:02.008Z,19.20
2022-09-28T03:02:02.097Z,19.70
2022-09-28T03:03:02.193Z,18.79
2022-09-28T03:04:02.336Z,19.70
2022-09-28T03:05:02.482Z,20.50
2022-09-28T03:06:02.656Z,19.50
2022-09-28T03:07:02.774Z,20.60
2022-09-28T03:08:02.919Z,20.39
2022-09-28T03:09:03.066Z,19.10
2022-09-28T03:10:03.218Z,20.00
2022-09-28T03:11:03.369Z,20.79
2022-09-28T03:12:03.523Z,19.79
2022-09-28T03:13:03.670Z,20.00
2022-09-28T03:14:03.817Z,19.39
2022-09-28T03:15:03.965Z,20.60
2022-09-28T03:16:04.148Z,21.79
2022-09-28T03:17:04.255Z,19.29
2022-09-28T03:18:04.407Z,19.89
2022-09-28T03:19:04.550Z,20.39
2022-09-28T03:20:04.700Z,19.29
2022-09-28T03:21:04.850Z,20.29
2022-09-28T03:22:05.027Z,20.39
2022-09-28T03:23:24.789Z,21.10
2022-09-28T03:24:06.314Z,20.00
2022-09-28T03:25:05.455Z,21.20
2022-09-28T03:26:05.602Z,21.20
2022-09-28T03:27:05.749Z,20.50
2022-09-28T03:28:05.897Z,20.29
2022-09-28T03:29:06.041Z,20.39
2022-09-28T03:30:06.191Z,21.00
2022-09-28T03:31:06.470Z,20.29
2022-09-28T03:32:06.495Z,20.89
2022-09-28T03:33:06.644Z,21.20
2022-09-28T03:34:06.787Z,19.29
2022-09-28T03:35:06.935Z,20.20
2022-09-28T03:36:07.083Z,20.29
2022-09-28T03:37:07.227Z,20.50
2022-09-28T03:38:07.399Z,22.39
2022-09-28T03:39:07.515Z,20.89
2022-09-28T03:40:07.665Z,20.10
2022-09-28T03:41:07.811Z,22.00
2022-09-28T03:42:07.958Z,20.79
2022-09-28T03:43:08.114Z,21.20
2022-09-28T03:44:08.256Z,19.70
2022-09-28T03:45:08.402Z,22.79
2022-09-28T03:46:08.661Z,20.39
2022-09-28T03:47:08.696Z,22.79
2022-09-28T03:48:08.838Z,21.10
2022-09-28T03:49:08.986Z,22.10
2022-09-28T03:50:09.128Z,21.29
2022-09-28T03:51:09.277Z,21.10
2022-09-28T03:52:09.410Z,21.60
2022-09-28T03:53:09.572Z,22.89
2022-09-28T03:54:09.687Z,22.50
2022-09-28T03:55:09.830Z,22.60
2022-09-28T03:56:09.973Z,21.70
2022-09-28T03:57:10.117Z,23.79
2022-09-28T03:58:10.258Z,21.70
2022-09-28T03:59:10.499Z,22.10
2022-09-28T04:00:10.548Z,21.00
2022-09-28T04:01:14.175Z,22.20
2022-09-28T04:02:11.968Z,21.60
2022-09-28T04:03:10.959Z,22.50
2022-09-28T04:04:11.115Z,22.00
2022-09-28T04:05:11.244Z,22.89
2022-09-28T04:06:11.382Z,21.60
2022-09-28T04:07:11.525Z,21.79
2022-09-28T04:08:11.672Z,22.50
2022-09-28T04:09:11.842Z,21.20
2022-09-28T04:10:11.956Z,22.79
2022-09-28T04:11:12.098Z,24.20
2022-09-28T04:12:12.244Z,22.79
2022-09-28T04:13:12.386Z,22.20
2022-09-28T04:14:12.531Z,21.20
2022-09-28T04:15:12.669Z,22.10
2022-09-28T04:16:12.861Z,21.70
2022-09-28T04:17:12.957Z,21.20
2022-09-28T04:18:13.105Z,20.89
2022-09-28T04:19:13.327Z,21.89
2022-09-28T04:20:13.393Z,20.10
2022-09-28T04:21:13.540Z,21.00
2022-09-28T04:22:13.681Z,20.89
2022-09-28T04:23:13.829Z,20.89
2022-09-28T04:24:13.969Z,20.00
2022-09-28T04:25:14.135Z,21.39
2022-09-28T04:26:14.251Z,23.29
2022-09-28T04:27:14.404Z,21.89
2022-09-28T04:28:14.535Z,22.00
2022-09-28T04:29:14.673Z,22.00
2022-09-28T04:30:14.808Z,23.20
2022-09-28T04:31:15.038Z,21.10
2022-09-28T04:32:15.078Z,21.00
2022-09-28T04:33:15.218Z,21.29
2022-09-28T04:34:15.363Z,21.50
2022-09-28T04:35:15.496Z,20.50
2022-09-28T04:36:15.633Z,20.20
2022-09-28T04:37:15.769Z,20.10
2022-09-28T04:38:26.795Z,19.50
2022-09-28T04:39:17.172Z,20.10
2022-09-28T04:40:16.308Z,19.89
2022-09-28T04:41:16.376Z,19.39
2022-09-28T04:42:16.488Z,20.70
2022-09-28T04:43:16.635Z,19.89
2022-09-28T04:44:16.783Z,20.89
2022-09-28T04:45:16.929Z,21.70
2022-09-28T04:46:17.242Z,22.00
2022-09-28T04:47:17.237Z,21.29
2022-09-28T04:48:17.390Z,19.39
2022-09-28T04:49:17.646Z,19.79
2022-09-28T04:50:17.700Z,20.50
2022-09-28T04:51:17.844Z,21.39
2022-09-28T04:52:18.685Z,20.29
2022-09-28T04:53:18.155Z,20.60
2022-09-28T04:54:18.295Z,21.20
2022-09-28T04:55:18.444Z,20.39
2022-09-28T04:56:18.597Z,20.89
2022-09-28T04:57:18.840Z,21.29
2022-09-28T04:58:18.892Z,21.10
2022-09-28T04:59:19.043Z,21.89
2022-09-28T05:00:19.192Z,21.70
2022-09-28T05:01:19.398Z,21.79
2022-09-28T05:02:19.600Z,22.50
2022-09-28T05:03:19.644Z,22.70
2022-09-28T05:04:23.655Z,23.20
2022-09-28T05:05:19.942Z,22.39
2022-09-28T05:06:20.088Z,21.89
2022-09-28T05:07:20.243Z,21.70
2022-09-28T05:08:20.388Z,23.10
2022-09-28T05:09:20.534Z,21.60
2022-09-28T05:10:20.682Z,22.10
2022-09-28T05:11:20.828Z,21.39
2022-09-28T05:12:20.996Z,22.29
2022-09-28T05:13:21.119Z,22.29
2022-09-28T05:14:21.267Z,22.50
2022-09-28T05:15:21.412Z,21.70
2022-09-28T05:16:21.677Z,21.20
2022-09-28T05:17:21.702Z,22.70
2022-09-28T05:18:21.852Z,20.89
2022-09-28T05:19:22.004Z,25.00
2022-09-28T05:20:22.152Z,22.39
2022-09-28T05:21:22.299Z,23.70
2022-09-28T05:22:22.460Z,23.20
2022-09-28T05:23:22.611Z,24.00
2022-09-28T05:24:22.767Z,23.00
2022-09-28T05:25:22.962Z,24.70
2022-09-28T05:26:23.074Z,25.10
2022-09-28T05:27:23.253Z,23.70
2022-09-28T05:28:23.374Z,22.89
2022-09-28T05:29:23.525Z,22.60
2022-09-28T05:30:23.679Z,21.70
2022-09-28T05:31:23.950Z,22.29
2022-09-28T05:32:23.983Z,20.79
2022-09-28T05:33:24.137Z,21.29
2022-09-28T05:34:24.291Z,21.50
2022-09-28T05:35:24.448Z,21.60
2022-09-28T05:36:24.598Z,21.50
2022-09-28T05:37:24.748Z,21.00
2022-09-28T05:38:24.897Z,21.39
2022-09-28T05:39:25.051Z,21.89
2022-09-28T05:40:25.258Z,22.50
2022-09-28T05:41:25.351Z,21.10
2022-09-28T05:42:25.528Z,21.00
2022-09-28T05:43:25.661Z,20.70
2022-09-28T05:44:25.817Z,20.39
2022-09-28T05:45:26.044Z,21.10
2022-09-28T05:46:26.190Z,20.50
2022-09-28T05:47:26.274Z,20.89
2022-09-28T05:48:26.431Z,20.29
2022-09-28T05:49:26.584Z,20.00
2022-09-28T05:50:26.734Z,21.20
2022-09-28T05:51:26.892Z,20.89
2022-09-28T05:52:27.041Z,20.50
2022-09-28T05:53:27.193Z,20.70
2022-09-28T05:54:27.341Z,20.60
2022-09-28T05:55:27.531Z,21.10
2022-09-28T05:56:27.642Z,20.39
2022-09-28T05:57:27.813Z,20.29
2022-09-28T05:58:27.936Z,21.20
2022-09-28T05:59:28.075Z,21.20
2022-09-28T06:00:28.222Z,22.39
2022-09-28T06:01:28.494Z,23.10
2022-09-28T06:02:28.591Z,21.60
2022-09-28T06:03:28.662Z,21.50
2022-09-28T06:04:28.807Z,22.60
2022-09-28T06:05:28.955Z,21.39
2022-09-28T06:06:29.098Z,20.29
2022-09-28T06:07:29.243Z,21.70
2022-09-28T06:08:29.391Z,21.70
2022-09-28T06:09:29.539Z,21.89
2022-09-28T06:10:29.685Z,20.89
2022-09-28T06:11:29.830Z,20.89
2022-09-28T06:12:29.998Z,22.89
2022-09-28T06:13:30.124Z,21.79
2022-09-28T06:14:30.272Z,20.89
2022-09-28T06:15:30.421Z,21.29
2022-09-28T06:16:30.634Z,21.20
2022-09-28T06:17:30.718Z,19.39
2022-09-28T06:18:30.866Z,20.20
2022-09-28T06:19:31.011Z,20.50
2022-09-28T06:20:31.154Z,21.29
2022-09-28T06:21:31.296Z,20.79
2022-09-28T06:22:31.435Z,21.10
2022-09-28T06:23:31.578Z,20.50
2022-09-28T06:24:31.720Z,20.00
2022-09-28T06:25:31.865Z,19.39
2022-09-28T06:26:32.013Z,19.79
2022-09-28T06:27:32.181Z,21.39
2022-09-28T06:28:32.300Z,19.89
2022-09-28T06:29:32.442Z,20.70
2022-09-28T06:30:32.677Z,20.39
2022-09-28T06:31:32.723Z,19.20
2022-09-28T06:32:32.862Z,21.70
2022-09-28T06:33:33.006Z,21.29
2022-09-28T06:34:33.146Z,21.29
2022-09-28T06:35:33.287Z,21.00
2022-09-28T06:36:33.425Z,20.79
2022-09-28T06:37:33.568Z,20.00
2022-09-28T06:38:33.711Z,20.70
2022-09-28T06:39:33.854Z,21.60
2022-09-28T06:40:34.095Z,20.39
2022-09-28T06:41:34.139Z,21.39
2022-09-28T06:42:34.282Z,21.70
2022-09-28T06:43:34.667Z,21.20
2022-09-28T06:44:34.558Z,21.60
2022-09-28T06:45:34.701Z,21.00
2022-09-28T06:46:34.887Z,20.89
2022-09-28T06:47:34.985Z,22.39
2022-09-28T06:48:35.127Z,21.39
2022-09-28T06:49:35.278Z,20.79
2022-09-28T06:50:35.413Z,20.60
2022-09-28T06:51:35.559Z,20.50
2022-09-28T06:52:35.701Z,20.20
2022-09-28T06:53:35.839Z,20.00
2022-09-28T06:54:35.982Z,21.10
2022-09-28T06:55:36.144Z,20.70
2022-09-28T06:56:36.258Z,20.39
2022-09-28T06:57:36.397Z,20.20
2022-09-28T06:58:36.582Z,19.79
2022-09-28T06:59:36.724Z,21.79
2022-09-28T07:00:36.816Z,20.39
2022-09-28T07:01:37.055Z,20.20
2022-09-28T07:02:37.167Z,20.79
2022-09-28T07:03:37.240Z,20.79
2022-09-28T07:04:37.392Z,21.29
2022-09-28T07:05:37.515Z,20.60
2022-09-28T07:06:37.653Z,21.50
2022-09-28T07:07:37.991Z,20.89
2022-09-28T07:08:37.933Z,20.60
2022-09-28T07:09:42.214Z,21.00
2022-09-28T07:10:38.214Z,20.89
2022-09-28T07:11:38.343Z,20.89
2022-09-28T07:12:38.482Z,20.39
2022-09-28T07:13:53.948Z,20.39
2022-09-28T07:14:47.706Z,20.29
2022-09-28T07:15:39.919Z,21.50
2022-09-28T07:17:04.596Z,21.60
2022-09-28T07:17:52.774Z,22.00
2022-09-28T07:18:40.323Z,22.10
2022-09-28T07:19:39.439Z,20.39
2022-09-28T07:20:51.554Z,19.89
2022-09-28T07:21:40.734Z,22.20
2022-09-28T07:22:43.464Z,20.39
2022-09-28T07:23:50.651Z,20.50
2022-09-28T07:24:41.127Z,19.70
2022-09-28T07:25:40.244Z,18.39
2022-09-28T07:26:40.382Z,19.70
2022-09-28T07:27:40.510Z,18.70
2022-09-28T07:28:40.639Z,19.50
2022-09-28T07:29:40.772Z,19.39
2022-09-28T07:30:41.055Z,18.60
2022-09-28T07:31:41.030Z,18.89
2022-09-28T07:32:41.153Z,16.70
2022-09-28T07:33:41.279Z,17.50
2022-09-28T07:34:41.399Z,17.00
2022-09-28T07:35:41.522Z,16.00
2022-09-28T07:36:41.636Z,17.79
2022-09-28T07:37:41.751Z,16.50
2022-09-28T07:38:41.869Z,17.10
2022-09-28T07:39:41.988Z,16.70
2022-09-28T07:40:45.131Z,15.89
2022-09-28T07:41:43.242Z,13.80
2022-09-28T07:42:42.341Z,13.89
2022-09-28T07:43:42.455Z,13.39
2022-09-28T07:44:42.574Z,13.39
2022-09-28T07:45:42.815Z,13.89
2022-09-28T07:46:42.813Z,12.69
2022-09-28T07:47:42.930Z,12.10
2022-09-28T07:48:43.043Z,12.30
2022-09-28T07:49:43.166Z,11.80
2022-09-28T07:50:43.281Z,11.80
2022-09-28T07:51:43.399Z,12.19
2022-09-28T07:52:43.522Z,12.80
2022-09-28T07:53:43.636Z,11.89
2022-09-28T07:54:43.759Z,12.30
2022-09-28T07:55:43.881Z,11.80
2022-09-28T07:56:44.000Z,12.50
2022-09-28T07:57:44.122Z,13.30
2022-09-28T07:58:44.239Z,12.00
2022-09-28T07:59:44.355Z,11.39
2022-09-28T08:00:44.473Z,10.39
2022-09-28T08:01:44.699Z,12.30
2022-09-28T08:02:44.766Z,11.30
2022-09-28T08:03:44.813Z,10.30
2022-09-28T08:04:44.929Z,10.60
2022-09-28T08:05:45.043Z,10.69
2022-09-28T08:06:45.153Z,9.89
2022-09-28T08:07:45.258Z,9.89
2022-09-28T08:08:45.361Z,9.89
2022-09-28T08:09:45.463Z,10.50
2022-09-28T08:10:47.217Z,9.50
2022-09-28T08:11:45.663Z,8.80
2022-09-28T08:12:45.764Z,9.19
2022-09-28T08:13:45.862Z,9.19
2022-09-28T08:14:45.957Z,9.10
2022-09-28T08:15:46.059Z,9.30
2022-09-28T08:16:47.661Z,9.00
2022-09-28T08:17:46.282Z,8.10
2022-09-28T08:18:46.354Z,8.60
2022-09-28T08:19:46.453Z,8.60
2022-09-28T08:20:50.727Z,8.50
2022-09-28T08:21:46.641Z,8.30
2022-09-28T08:22:46.736Z,8.60
2022-09-28T08:23:46.831Z,7.90
2022-09-28T08:24:46.929Z,8.50
2022-09-28T08:25:47.031Z,8.69
2022-09-28T08:26:47.129Z,8.10
2022-09-28T08:27:47.227Z,8.69
2022-09-28T08:28:47.326Z,8.19
2022-09-28T08:29:47.415Z,8.00
2022-09-28T08:30:47.707Z,8.60
2022-09-28T08:31:47.604Z,8.00
2022-09-28T08:32:47.702Z,8.19
2022-09-28T08:33:47.824Z,7.80
2022-09-28T08:34:47.901Z,8.30
2022-09-28T08:35:48.000Z,8.19
2022-09-28T08:36:48.092Z,9.39
2022-09-28T08:37:52.329Z,8.60
2022-09-28T08:38:49.295Z,8.39
2022-09-28T08:39:48.373Z,8.60
2022-09-28T08:40:48.576Z,8.00
2022-09-28T08:41:48.569Z,8.69
2022-09-28T08:42:48.666Z,9.10
2022-09-28T08:43:48.762Z,8.80
2022-09-28T08:44:48.871Z,8.60
2022-09-28T08:45:48.995Z,8.69
2022-09-28T08:46:49.061Z,8.60
2022-09-28T08:47:49.161Z,8.89
2022-09-28T08:49:06.635Z,8.89
2022-09-28T08:49:49.419Z,8.30
2022-09-28T08:50:49.477Z,8.60
2022-09-28T08:51:49.567Z,8.50
2022-09-28T08:52:49.678Z,9.10
2022-09-28T08:53:49.779Z,8.60
2022-09-28T08:54:49.880Z,8.30
2022-09-28T08:55:49.990Z,8.89
2022-09-28T08:56:50.099Z,8.10
2022-09-28T08:57:50.207Z,8.19
2022-09-28T08:58:50.311Z,8.39
2022-09-28T08:59:50.419Z,8.39
2022-09-28T09:00:50.575Z,7.80
2022-09-28T09:01:50.677Z,7.40
2022-09-28T09:02:50.819Z,7.40
2022-09-28T09:03:50.818Z,8.00
2022-09-28T09:04:50.911Z,7.09
2022-09-28T09:05:51.021Z,7.09
2022-09-28T09:06:51.086Z,7.19
2022-09-28T09:07:51.171Z,7.09
2022-09-28T09:08:51.256Z,7.69
2022-09-28T09:09:51.329Z,6.69
2022-09-28T09:10:51.409Z,7.00
2022-09-28T09:11:51.484Z,6.69
2022-09-28T09:12:54.629Z,6.19
2022-09-28T09:13:51.641Z,6.90
2022-09-28T09:14:51.721Z,6.69
2022-09-28T09:15:51.816Z,6.19
2022-09-28T09:16:51.915Z,7.50
2022-09-28T09:17:51.955Z,6.59
2022-09-28T09:18:52.034Z,6.40
2022-09-28T09:19:52.117Z,6.69
2022-09-28T09:20:52.202Z,7.00
2022-09-28T09:21:52.314Z,6.90
2022-09-28T09:22:52.377Z,6.80
2022-09-28T09:23:52.458Z,7.00
2022-09-28T09:24:52.541Z,7.30
2022-09-28T09:25:52.620Z,7.50
2022-09-28T09:26:52.692Z,7.30
2022-09-28T09:27:52.768Z,7.09
2022-09-28T09:28:52.830Z,6.40
2022-09-28T09:29:52.888Z,6.09
2022-09-28T09:30:52.973Z,6.30
2022-09-28T09:31:52.978Z,5.69
2022-09-28T09:32:53.016Z,5.59
2022-09-28T09:33:53.055Z,5.69
2022-09-28T09:34:54.642Z,6.09
2022-09-28T09:35:53.118Z,5.80
2022-09-28T09:36:53.141Z,5.80
2022-09-28T09:37:57.720Z,5.59
2022-09-28T09:38:53.169Z,5.69
2022-09-28T09:39:53.173Z,5.09
2022-09-28T09:40:53.323Z,4.40
2022-09-28T09:41:53.175Z,4.90
2022-09-28T09:42:53.167Z,4.90
2022-09-28T09:43:53.154Z,4.80
2022-09-28T09:44:53.136Z,4.69
2022-09-28T09:45:53.177Z,4.59
2022-09-28T09:46:53.093Z,4.50
2022-09-28T09:47:53.077Z,5.00
2022-09-28T09:48:53.036Z,4.90
2022-09-28T09:49:53.008Z,4.90
2022-09-28T09:50:52.971Z,4.80
2022-09-28T09:51:52.934Z,5.30
2022-09-28T09:52:52.899Z,5.30
2022-09-28T09:53:52.895Z,4.90
2022-09-28T09:54:52.810Z,4.69
2022-09-28T09:55:52.763Z,5.09
2022-09-28T09:56:52.716Z,5.00
2022-09-28T09:57:52.668Z,4.80
2022-09-28T09:58:52.618Z,4.59
2022-09-28T09:59:52.567Z,4.59
2022-09-28T10:00:52.609Z,4.50
2022-09-28T10:01:52.469Z,5.09
2022-09-28T10:02:52.477Z,5.40
2022-09-28T10:03:52.357Z,5.00
2022-09-28T10:04:52.298Z,5.30
2022-09-28T10:05:52.242Z,4.80
2022-09-28T10:06:52.189Z,5.30
2022-09-28T10:07:52.148Z,5.30
2022-09-28T10:08:52.115Z,5.00
2022-09-28T10:09:52.133Z,5.00
2022-09-28T10:10:52.070Z,4.59
2022-09-28T10:11:52.076Z,5.00
2022-09-28T10:12:52.057Z,5.19
2022-09-28T10:13:52.062Z,5.40
2022-09-28T10:14:52.073Z,5.09
2022-09-28T10:15:52.094Z,5.09
2022-09-28T10:16:52.169Z,5.19
2022-09-28T10:17:52.151Z,4.90
2022-09-28T10:18:52.181Z,5.40
2022-09-28T10:19:52.224Z,4.59
2022-09-28T10:20:52.266Z,4.30
2022-09-28T10:21:52.305Z,4.69
2022-09-28T10:22:52.358Z,4.30
2022-09-28T10:23:52.395Z,4.40
2022-09-28T10:24:52.446Z,4.09
2022-09-28T10:25:52.507Z,4.19
2022-09-28T10:26:52.503Z,3.59
2022-09-28T10:27:52.582Z,3.90
2022-09-28T10:28:52.535Z,3.79
2022-09-28T10:29:52.548Z,3.79
2022-09-28T10:30:52.709Z,4.00
2022-09-28T10:31:52.582Z,3.40
2022-09-28T10:32:52.595Z,3.59
2022-09-28T10:33:52.590Z,3.29
2022-09-28T10:34:52.580Z,3.29
2022-09-28T10:35:52.559Z,3.29
2022-09-28T10:36:52.536Z,3.20
2022-09-28T10:37:52.502Z,3.09
2022-09-28T10:38:52.460Z,3.29
2022-09-28T10:39:52.415Z,3.40
2022-09-28T10:40:52.380Z,3.29
2022-09-28T10:41:52.322Z,3.90
2022-09-28T10:42:52.247Z,4.59
2022-09-28T10:43:57.403Z,4.00
2022-09-28T10:44:52.162Z,3.70
2022-09-28T10:45:52.146Z,3.50
2022-09-28T10:46:52.100Z,3.50
2022-09-28T10:47:52.194Z,3.40
2022-09-28T10:48:52.070Z,3.40
2022-09-28T10:49:52.064Z,3.29
2022-09-28T10:50:52.066Z,2.90
2022-09-28T10:51:52.081Z,3.00
2022-09-28T10:52:52.117Z,2.70
2022-09-28T10:53:52.101Z,4.80
2022-09-28T10:54:52.118Z,4.30
2022-09-28T10:55:52.134Z,4.09
2022-09-28T10:56:52.150Z,4.59
2022-09-28T10:57:52.192Z,4.50
2022-09-28T10:58:52.200Z,4.90
2022-09-28T10:59:52.195Z,4.90
2022-09-28T11:00:52.311Z,4.40
2022-09-28T11:01:52.228Z,4.09
2022-09-28T11:02:52.268Z,4.40
2022-09-28T11:03:52.271Z,4.59
2022-09-28T11:04:52.298Z,4.50
2022-09-28T11:05:52.324Z,4.30
2022-09-28T11:06:52.409Z,3.79
2022-09-28T11:07:52.392Z,3.59
2022-09-28T11:08:52.417Z,3.79
2022-09-28T11:09:52.457Z,4.30
2022-09-28T11:10:52.492Z,4.40
2022-09-28T11:11:52.526Z,4.80
2022-09-28T11:12:52.564Z,5.50
2022-09-28T11:13:52.739Z,5.30
2022-09-28T11:14:52.652Z,5.00
2022-09-28T11:15:52.688Z,5.19
2022-09-28T11:16:52.806Z,5.00
2022-09-28T11:17:52.777Z,5.40
2022-09-28T11:18:52.825Z,5.00
2022-09-28T11:19:52.868Z,4.90
2022-09-28T11:20:52.906Z,4.90
2022-09-28T11:21:52.936Z,5.00
2022-09-28T11:22:53.665Z,5.69
2022-09-28T11:23:52.946Z,4.40
2022-09-28T11:24:52.938Z,4.19
2022-09-28T11:25:52.937Z,4.00
2022-09-28T11:26:52.954Z,3.50
2022-09-28T11:27:52.965Z,4.00
2022-09-28T11:28:52.971Z,4.40
2022-09-28T11:29:53.054Z,4.30
2022-09-28T11:30:53.115Z,4.09
2022-09-28T11:31:53.058Z,4.40
2022-09-28T11:32:53.093Z,4.90
2022-09-28T11:33:53.131Z,4.69
2022-09-28T11:34:59.741Z,4.50
2022-09-28T11:35:54.234Z,4.50
2022-09-28T11:36:53.268Z,4.59
2022-09-28T11:37:53.324Z,4.80
2022-09-28T11:38:53.384Z,5.59
2022-09-28T11:39:53.451Z,5.00
2022-09-28T11:40:53.562Z,4.90
2022-09-28T11:41:53.577Z,5.40
2022-09-28T11:42:53.707Z,5.30
2022-09-28T11:43:53.712Z,5.00
2022-09-28T11:44:53.780Z,5.19
2022-09-28T11:45:54.017Z,4.90
2022-09-28T11:46:53.923Z,4.69
2022-09-28T11:47:53.991Z,5.09
2022-09-28T11:48:54.062Z,4.90
2022-09-28T11:49:54.135Z,5.09
2022-09-28T11:50:54.218Z,4.50
2022-09-28T11:51:54.288Z,4.80
2022-09-28T11:52:54.364Z,4.69
2022-09-28T11:53:54.439Z,4.50
2022-09-28T11:54:54.513Z,4.59
2022-09-28T11:55:54.586Z,4.80
2022-09-28T11:56:54.664Z,4.00
2022-09-28T11:57:54.742Z,4.59
2022-09-28T11:58:54.834Z,4.40
2022-09-28T11:59:54.892Z,4.59
2022-09-28T12:00:54.975Z,4.40
2022-09-28T12:01:55.078Z,4.69
2022-09-28T12:02:55.265Z,4.19
2022-09-28T12:03:55.208Z,4.09
2022-09-28T12:04:55.292Z,4.00
2022-09-28T12:05:55.463Z,4.19
2022-09-28T12:06:55.457Z,4.09
2022-09-28T12:07:55.541Z,3.90
2022-09-28T12:08:55.620Z,4.30
2022-09-28T12:09:55.705Z,3.79
2022-09-28T12:10:55.787Z,3.90
2022-09-28T12:11:55.866Z,3.50
2022-09-28T12:12:55.948Z,3.20
2022-09-28T12:13:56.021Z,2.90
2022-09-28T12:14:56.099Z,3.29
2022-09-28T12:17:11.811Z,3.59
2022-09-28T12:17:57.488Z,3.20
2022-09-28T12:18:56.454Z,3.20
2022-09-28T12:19:56.498Z,3.20
2022-09-28T12:20:56.572Z,3.40
2022-09-28T12:21:56.642Z,3.09
2022-09-28T12:22:56.717Z,3.20
2022-09-28T12:23:56.788Z,3.20
2022-09-28T12:24:56.863Z,3.29
2022-09-28T12:25:56.932Z,3.20
2022-09-28T12:26:57.004Z,2.70
2022-09-28T12:27:57.076Z,2.70
2022-09-28T12:28:57.145Z,2.90
2022-09-28T12:29:57.213Z,2.59
2022-09-28T12:30:57.346Z,3.00
2022-09-28T12:31:57.349Z,3.00
2022-09-28T12:32:57.416Z,2.90
2022-09-28T12:33:57.506Z,3.29
2022-09-28T12:34:57.546Z,2.70
2022-09-28T12:35:57.611Z,3.09
2022-09-28T12:36:57.671Z,3.00
2022-09-28T12:37:57.732Z,3.09
2022-09-28T12:39:17.542Z,2.70
2022-09-28T12:39:59.018Z,2.79
2022-09-28T12:40:57.978Z,2.59
2022-09-28T12:41:57.919Z,2.70
2022-09-28T12:42:57.935Z,2.70
2022-09-28T12:43:57.937Z,2.40
2022-09-28T12:44:59.613Z,2.40
2022-09-28T12:46:12.634Z,2.20
2022-09-28T12:46:58.908Z,2.29
2022-09-28T12:47:57.835Z,2.40
2022-09-28T12:49:43.619Z,2.79
2022-09-28T12:50:59.137Z,2.20
2022-09-28T12:51:57.692Z,2.79
2022-09-28T12:53:00.697Z,2.40
2022-09-28T12:53:57.633Z,3.40
2022-09-28T12:54:57.627Z,2.50
2022-09-28T12:55:57.547Z,2.50
2022-09-28T12:56:57.491Z,3.09
2022-09-28T12:57:57.429Z,2.59
2022-09-28T12:58:57.362Z,2.70
2022-09-28T12:59:57.291Z,2.29
2022-09-28T13:00:57.219Z,2.50
2022-09-28T13:01:57.199Z,2.29
2022-09-28T13:02:57.175Z,2.20
2022-09-28T13:03:56.967Z,2.40
2022-09-28T13:04:56.876Z,2.09
2022-09-28T13:05:56.810Z,2.09